createdAt,value
2022-11-02T00:01:36.898Z,18.10
2022-11-02T00:04:05.728Z,18.18
2022-11-02T00:06:34.889Z,18.22
2022-11-02T00:09:04.993Z,18.24
2022-11-02T00:11:37.138Z,18.01
2022-11-02T00:14:07.838Z,17.80
2022-11-02T00:16:38.991Z,18.02
2022-11-02T00:20:01.718Z,18.17
2022-11-02T00:22:02.813Z,18.21
2022-11-02T00:24:35.316Z,17.66
2022-11-02T00:27:05.026Z,18.21
2022-11-02T00:29:33.933Z,18.14
2022-11-02T00:32:01.183Z,18.38
2022-11-02T00:34:27.844Z,18.33
2022-11-02T00:36:55.601Z,17.97
2022-11-02T00:39:22.664Z,17.38
2022-11-02T00:41:49.607Z,18.19
2022-11-02T00:44:16.228Z,17.48
2022-11-02T00:46:43.011Z,18.14
2022-11-02T00:49:09.664Z,18.00
2022-11-02T00:51:36.321Z,18.12
2022-11-02T00:54:03.007Z,18.12
2022-11-02T00:56:29.725Z,18.18
2022-11-02T00:59:02.390Z,18.17
2022-11-02T01:01:29.292Z,18.01
2022-11-02T01:03:57.813Z,17.91
2022-11-02T01:06:27.560Z,17.86
2022-11-02T01:08:58.572Z,17.63
2022-11-02T01:11:25.908Z,17.84
2022-11-02T01:13:54.884Z,17.78
2022-11-02T01:16:23.170Z,17.53
2022-11-02T01:18:57.092Z,17.83
2022-11-02T01:21:24.349Z,17.56
2022-11-02T01:23:51.357Z,17.70
2022-11-02T01:26:18.544Z,17.73
2022-11-02T01:28:45.386Z,17.55
2022-11-02T01:31:12.395Z,17.73
2022-11-02T01:33:49.380Z,17.51
2022-11-02T01:38:49.221Z,17.68
2022-11-02T01:41:21.656Z,17.53
2022-11-02T01:43:52.329Z,17.67
2022-11-02T01:46:23.099Z,17.44
2022-11-02T01:49:20.027Z,17.48
2022-11-02T01:51:57.690Z,17.50
2022-11-02T01:54:38.184Z,17.53
2022-11-02T01:57:08.741Z,17.52
2022-11-02T01:59:41.549Z,17.50
2022-11-02T02:02:16.411Z,17.43
2022-11-02T02:04:45.885Z,17.08
2022-11-02T02:07:15.025Z,17.42
2022-11-02T02:09:55.528Z,17.17
2022-11-02T02:12:23.611Z,17.40
2022-11-02T02:14:51.203Z,17.30
2022-11-02T02:17:33.270Z,17.33
2022-11-02T02:20:37.907Z,17.37
2022-11-02T02:23:13.977Z,16.88
2022-11-02T02:26:17.512Z,17.27
2022-11-02T02:29:14.266Z,17.30
2022-11-02T02:31:49.230Z,17.16
2022-11-02T02:34:21.048Z,17.12
2022-11-02T02:36:58.687Z,17.14
2022-11-02T02:39:40.876Z,17.20
2022-11-02T02:42:19.220Z,16.81
2022-11-02T02:44:53.819Z,17.15
2022-11-02T02:47:23.758Z,17.12
2022-11-02T02:50:27.715Z,16.92
2022-11-02T02:52:56.264Z,17.05
2022-11-02T02:55:27.754Z,17.10
2022-11-02T02:57:56.378Z,17.13
2022-11-02T03:00:23.105Z,17.08
2022-11-02T03:03:01.257Z,16.98
2022-11-02T03:05:30.652Z,16.78
2022-11-02T03:08:06.699Z,16.98
2022-11-02T03:10:44.168Z,17.14
2022-11-02T03:13:36.759Z,16.79
2022-11-02T03:16:11.880Z,17.02
2022-11-02T03:18:44.537Z,17.03
2022-11-02T03:21:20.179Z,17.05
2022-11-02T03:23:56.415Z,16.98
2022-11-02T03:27:00.819Z,16.52
2022-11-02T03:29:45.294Z,15.98
2022-11-02T03:32:39.188Z,16.58
2022-11-02T03:35:15.984Z,16.23
2022-11-02T03:37:56.307Z,16.88
2022-11-02T03:40:37.805Z,16.68
2022-11-02T03:43:06.964Z,16.94
2022-11-02T03:45:39.753Z,16.15
2022-11-02T03:48:12.992Z,16.57
2022-11-02T03:50:48.164Z,16.80
2022-11-02T03:53:26.327Z,17.03
2022-11-02T03:55:58.594Z,16.98
2022-11-02T03:58:25.846Z,16.92
2022-11-02T04:01:02.312Z,16.78
2022-11-02T04:03:32.286Z,16.82
2022-11-02T04:05:58.890Z,16.80
2022-11-02T04:08:37.559Z,16.74
2022-11-02T04:11:24.913Z,16.76
2022-11-02T04:14:10.943Z,16.51
2022-11-02T04:16:39.585Z,16.72
2022-11-02T04:19:24.813Z,16.59
2022-11-02T04:22:10.038Z,16.77
2022-11-02T04:24:56.910Z,16.55
2022-11-02T04:27:26.753Z,16.69
2022-11-02T04:29:53.374Z,16.72
2022-11-02T04:32:40.176Z,16.59
2022-11-02T04:35:07.549Z,16.42
2022-11-02T04:38:02.403Z,16.44
2022-11-02T04:40:31.802Z,16.40
2022-11-02T04:43:05.533Z,16.37
2022-11-02T04:45:32.295Z,16.27
2022-11-02T04:48:10.153Z,16.39
2022-11-02T04:50:37.534Z,16.38
2022-11-02T04:53:07.308Z,16.22
2022-11-02T04:55:36.587Z,16.00
2022-11-02T04:58:03.521Z,16.22
2022-11-02T05:00:30.646Z,16.36
2022-11-02T05:03:03.910Z,16.35
2022-11-02T05:05:32.419Z,16.30
2022-11-02T05:07:59.223Z,16.26
2022-11-02T05:10:27.740Z,16.36
2022-11-02T05:13:01.310Z,16.20
2022-11-02T05:15:28.597Z,16.28
2022-11-02T05:17:57.956Z,16.18
2022-11-02T05:20:25.136Z,15.71
2022-11-02T05:22:51.859Z,15.50
2022-11-02T05:25:18.595Z,16.13
2022-11-02T05:27:45.239Z,15.89
2022-11-02T05:30:12.724Z,16.13
2022-11-02T05:32:39.409Z,16.09
2022-11-02T05:35:08.314Z,16.14
2022-11-02T05:37:35.168Z,16.21
2022-11-02T05:40:01.907Z,16.37
2022-11-02T05:42:29.064Z,16.41
2022-11-02T05:44:57.051Z,16.26
2022-11-02T05:47:26.418Z,16.08
2022-11-02T05:49:53.415Z,16.12
2022-11-02T05:52:20.328Z,15.99
2022-11-02T05:54:46.972Z,15.86
2022-11-02T05:57:14.131Z,15.99
2022-11-02T05:59:46.795Z,16.22
2022-11-02T06:02:21.944Z,16.17
2022-11-02T06:04:53.069Z,16.18
2022-11-02T06:07:19.824Z,16.26
2022-11-02T06:09:46.541Z,16.06
2022-11-02T06:12:13.507Z,15.69
2022-11-02T06:14:40.237Z,15.72
2022-11-02T06:17:12.743Z,15.92
2022-11-02T06:19:39.344Z,16.20
2022-11-02T06:22:05.958Z,16.16
2022-11-02T06:24:32.478Z,16.13
2022-11-02T06:26:59.058Z,16.19
2022-11-02T06:29:27.090Z,16.03
2022-11-02T06:31:57.605Z,15.98
2022-11-02T06:34:24.242Z,16.08
2022-11-02T06:36:52.904Z,16.10
2022-11-02T06:39:21.580Z,16.15
2022-11-02T06:41:48.217Z,15.89
2022-11-02T06:44:15.094Z,16.08
2022-11-02T06:46:41.717Z,16.20
2022-11-02T06:49:08.225Z,16.20
2022-11-02T06:51:34.753Z,16.21
2022-11-02T06:54:08.489Z,16.17
2022-11-02T06:56:38.337Z,16.24
2022-11-02T06:59:04.895Z,16.38
2022-11-02T07:01:31.626Z,16.34
2022-11-02T07:03:58.496Z,16.55
2022-11-02T07:06:25.257Z,16.43
2022-11-02T07:08:51.924Z,16.14
2022-11-02T07:11:18.707Z,16.57
2022-11-02T07:13:45.288Z,16.47
2022-11-02T07:16:12.290Z,16.63
2022-11-02T07:18:38.982Z,16.71
2022-11-02T07:21:05.748Z,16.90
2022-11-02T07:23:33.253Z,16.70
2022-11-02T07:26:03.477Z,16.85
2022-11-02T07:28:30.984Z,16.92
2022-11-02T07:31:00.700Z,16.88
2022-11-02T07:33:36.071Z,16.78
2022-11-02T07:36:06.922Z,16.94
2022-11-02T07:38:35.514Z,16.65
2022-11-02T07:41:02.448Z,16.64
2022-11-02T07:43:31.491Z,16.85
2022-11-02T07:45:58.209Z,16.81
2022-11-02T07:48:25.637Z,16.76
2022-11-02T07:50:59.855Z,16.72
2022-11-02T07:53:31.012Z,16.61
2022-11-02T07:56:01.400Z,16.73
2022-11-02T07:58:28.179Z,16.64
2022-11-02T08:01:09.385Z,15.94
2022-11-02T08:03:36.060Z,16.45
2022-11-02T08:06:05.541Z,16.65
2022-11-02T08:08:35.330Z,16.49
2022-11-02T08:11:09.557Z,16.35
2022-11-02T08:13:39.246Z,16.49
2022-11-02T08:16:08.480Z,16.69
2022-11-02T08:18:35.816Z,16.67
2022-11-02T08:21:05.542Z,16.66
2022-11-02T08:23:32.260Z,16.53
2022-11-02T08:26:00.382Z,16.65
2022-11-02T08:28:32.715Z,16.76
2022-11-02T08:31:00.693Z,16.45
2022-11-02T08:33:28.878Z,16.62
2022-11-02T08:36:03.366Z,16.95
2022-11-02T08:38:30.255Z,16.58
2022-11-02T08:40:57.471Z,16.93
2022-11-02T08:43:24.375Z,17.35
2022-11-02T08:46:17.019Z,17.34
2022-11-02T08:48:45.179Z,17.65
2022-11-02T08:51:14.304Z,17.65
2022-11-02T08:53:42.359Z,17.64
2022-11-02T08:56:10.447Z,17.58
2022-11-02T08:58:40.295Z,17.92
2022-11-02T09:01:07.476Z,17.28
2022-11-02T09:03:34.499Z,18.13
2022-11-02T09:06:04.585Z,18.21
2022-11-02T09:08:31.453Z,18.23
2022-11-02T09:11:05.702Z,18.23
2022-11-02T09:13:32.554Z,18.34
2022-11-02T09:16:03.236Z,18.27
2022-11-02T09:18:34.384Z,18.40
2022-11-02T09:21:06.128Z,18.32
2022-11-02T09:23:35.348Z,18.31
2022-11-02T09:26:05.670Z,18.33
2022-11-02T09:28:33.831Z,18.33
2022-11-02T09:31:06.022Z,18.39
2022-11-02T09:33:36.369Z,18.07
2022-11-02T09:36:05.741Z,17.77
2022-11-02T09:38:33.093Z,17.64
2022-11-02T09:40:59.786Z,18.16
2022-11-02T09:43:44.561Z,18.57
2022-11-02T09:46:18.720Z,17.21
2022-11-02T09:48:51.334Z,18.60
2022-11-02T09:51:23.485Z,18.50
2022-11-02T09:54:17.772Z,18.85
2022-11-02T09:56:46.298Z,18.94
2022-11-02T09:59:14.455Z,18.87
2022-11-02T10:01:56.960Z,19.11
2022-11-02T10:04:55.110Z,19.18
2022-11-02T10:07:26.563Z,19.36
2022-11-02T10:10:32.130Z,19.39
2022-11-02T10:13:13.957Z,19.64
2022-11-02T10:15:43.837Z,19.64
2022-11-02T10:18:26.577Z,19.31
2022-11-02T10:20:59.652Z,19.54
2022-11-02T10:23:32.956Z,19.61
2022-11-02T10:26:04.589Z,19.59
2022-11-02T10:28:39.670Z,19.76
2022-11-02T10:31:22.690Z,19.72
2022-11-02T10:33:52.794Z,19.88
2022-11-02T10:36:39.784Z,19.45
2022-11-02T10:39:23.841Z,20.19
2022-11-02T10:42:39.567Z,20.41
2022-11-02T10:45:28.096Z,20.42
2022-11-02T10:48:04.381Z,20.52
2022-11-02T10:50:34.356Z,20.75
2022-11-02T10:53:27.304Z,20.64
2022-11-02T10:56:16.216Z,20.69
2022-11-02T10:59:17.279Z,20.67
2022-11-02T11:01:57.504Z,19.82
2022-11-02T11:04:29.334Z,20.69
2022-11-02T11:06:57.284Z,20.56
2022-11-02T11:09:37.170Z,20.46
2022-11-02T11:12:20.901Z,19.85
2022-11-02T11:20:39.663Z,19.97
2022-11-02T11:23:16.107Z,20.28
2022-11-02T11:25:43.704Z,20.22
2022-11-02T11:28:37.268Z,20.08
2022-11-02T11:31:09.344Z,20.16
2022-11-02T11:33:58.566Z,19.94
2022-11-02T11:36:30.919Z,19.88
2022-11-02T11:39:23.337Z,19.96
2022-11-02T11:41:50.354Z,19.81
2022-11-02T11:44:17.339Z,19.52
2022-11-02T11:46:48.473Z,19.47
2022-11-02T11:49:48.066Z,20.11
2022-11-02T11:52:31.162Z,19.71
2022-11-02T11:55:01.548Z,20.19
2022-11-02T11:57:34.028Z,19.90
2022-11-02T12:00:05.207Z,20.19
2022-11-02T12:02:40.871Z,19.48
2022-11-02T12:05:22.638Z,20.21
2022-11-02T12:08:26.795Z,20.27
2022-11-02T12:10:56.951Z,20.22
2022-11-02T12:13:38.924Z,20.25
2022-11-02T12:16:42.721Z,20.30
2022-11-02T12:19:41.751Z,20.34
2022-11-02T12:22:46.135Z,20.35
2022-11-02T12:25:43.417Z,20.02
2022-11-02T12:28:31.841Z,20.24
2022-11-02T12:31:47.684Z,20.39
2022-11-02T12:38:56.226Z,20.57
2022-11-02T12:42:02.258Z,20.37
2022-11-02T12:44:46.558Z,20.29
2022-11-02T12:48:13.723Z,20.74
2022-11-02T12:51:16.821Z,20.74
2022-11-02T12:54:06.258Z,20.72
2022-11-02T12:56:53.142Z,20.70
2022-11-02T12:59:36.289Z,20.81
2022-11-02T13:02:55.601Z,19.65
2022-11-02T13:05:34.187Z,19.46
2022-11-02T13:08:29.495Z,20.31
2022-11-02T13:11:12.928Z,19.49
2022-11-02T13:13:46.856Z,19.36
2022-11-02T13:16:47.160Z,19.35
2022-11-02T13:19:37.146Z,19.53
2022-11-02T13:22:11.672Z,19.65
2022-11-02T13:24:48.696Z,20.46
2022-11-02T13:27:38.982Z,19.22
2022-11-02T13:30:28.523Z,20.27
2022-11-02T13:33:23.409Z,19.60
2022-11-02T13:35:59.194Z,19.36
2022-11-02T13:39:05.558Z,19.33
2022-11-02T13:42:21.734Z,19.22
2022-11-02T13:45:52.407Z,19.00
2022-11-02T13:48:36.805Z,20.30
2022-11-02T13:51:43.872Z,18.96
2022-11-02T13:54:19.100Z,20.21
2022-11-02T13:57:07.618Z,19.37
2022-11-02T13:59:51.540Z,20.18
2022-11-02T14:02:29.882Z,19.91
2022-11-02T14:05:05.935Z,20.30
2022-11-02T14:07:46.156Z,19.90
2022-11-02T14:10:23.855Z,19.02
2022-11-02T14:12:59.344Z,20.27
2022-11-02T14:15:34.142Z,19.96
2022-11-02T14:18:15.578Z,19.88
2022-11-02T14:20:51.318Z,18.87
2022-11-02T14:23:38.137Z,18.76
2022-11-02T14:26:34.253Z,20.06
2022-11-02T14:29:55.978Z,19.17
2022-11-02T14:32:43.572Z,19.42
2022-11-02T14:35:34.619Z,20.02
2022-11-02T14:38:29.629Z,19.99
2022-11-02T14:42:01.878Z,18.90
2022-11-02T14:44:48.612Z,19.89
2022-11-02T14:47:31.219Z,18.55
2022-11-02T14:50:24.180Z,18.58
2022-11-02T14:53:32.358Z,19.82
2022-11-02T14:56:10.305Z,19.51
2022-11-02T14:58:56.900Z,19.79
2022-11-02T15:01:29.300Z,18.34
2022-11-02T15:04:13.974Z,18.51
2022-11-02T15:06:59.099Z,18.43
2022-11-02T15:10:00.795Z,19.80
2022-11-02T15:12:58.921Z,19.33
2022-11-02T15:15:47.440Z,18.29
2022-11-02T15:18:46.435Z,19.72
2022-11-02T15:21:39.252Z,19.67
2022-11-02T15:24:24.536Z,19.17
2022-11-02T15:27:02.420Z,19.65
2022-11-02T15:29:41.450Z,19.20
2022-11-02T15:32:22.672Z,19.61
2022-11-02T15:34:55.369Z,19.62
2022-11-02T15:37:29.961Z,19.40
2022-11-02T15:39:59.692Z,19.57
2022-11-02T15:43:10.172Z,19.52
2022-11-02T15:46:09.419Z,19.45
2022-11-02T15:48:53.753Z,19.26
2022-11-02T15:51:36.876Z,19.50
2022-11-02T15:54:45.749Z,19.37
2022-11-02T15:57:33.681Z,19.29
2022-11-02T16:00:11.045Z,19.07
2022-11-02T16:02:48.506Z,18.41
2022-11-02T16:05:27.252Z,18.88
2022-11-02T16:08:11.484Z,19.07
2022-11-02T16:10:39.202Z,18.95
2022-11-02T16:13:20.715Z,18.79
2022-11-02T16:15:50.515Z,19.02
2022-11-02T16:18:49.025Z,18.96
2022-11-02T16:21:20.492Z,18.82
2022-11-02T16:23:57.014Z,18.92
2022-11-02T16:26:29.912Z,18.30
2022-11-02T16:28:59.819Z,18.83
2022-11-02T16:31:36.179Z,18.62
2022-11-02T16:34:36.939Z,18.65
2022-11-02T16:37:10.269Z,18.75
2022-11-02T16:39:42.198Z,18.51
2022-11-02T16:42:31.132Z,18.73
2022-11-02T16:45:01.085Z,18.58
2022-11-02T16:47:37.827Z,18.31
2022-11-02T16:50:22.208Z,18.55
2022-11-02T16:53:05.762Z,18.66
2022-11-02T16:55:47.518Z,18.70
2022-11-02T16:58:24.500Z,18.63
2022-11-02T17:03:38.188Z,18.67
2022-11-02T17:06:11.233Z,18.55
2022-11-02T17:08:40.559Z,18.42
2022-11-02T17:11:18.656Z,18.60
2022-11-02T17:14:04.516Z,17.16
2022-11-02T17:16:35.146Z,18.32
2022-11-02T17:19:41.002Z,17.45
2022-11-02T17:22:20.251Z,18.26
2022-11-02T17:24:48.473Z,18.30
2022-11-02T17:27:25.684Z,17.84
2022-11-02T17:29:55.983Z,18.36
2022-11-02T17:32:26.583Z,18.32
2022-11-02T17:34:58.295Z,17.73
2022-11-02T17:37:26.536Z,18.35
2022-11-02T17:40:02.945Z,18.39
2022-11-02T17:42:48.892Z,18.36
2022-11-02T17:45:26.097Z,18.35
2022-11-02T17:47:53.243Z,18.20
2022-11-02T17:50:21.966Z,18.01
2022-11-02T17:52:55.597Z,18.12
2022-11-02T17:55:24.861Z,18.27
2022-11-02T17:57:56.911Z,18.14
2022-11-02T18:00:27.312Z,18.35
2022-11-02T18:02:59.117Z,18.21
2022-11-02T18:05:31.036Z,18.19
2022-11-02T18:08:01.218Z,18.36
2022-11-02T18:10:34.330Z,18.30
2022-11-02T18:13:01.346Z,18.09
2022-11-02T18:15:30.769Z,18.44
2022-11-02T18:17:59.317Z,18.42
2022-11-02T18:20:28.207Z,18.15
2022-11-02T18:22:59.066Z,18.18
2022-11-02T18:25:35.525Z,18.27
2022-11-02T18:28:02.453Z,18.24
2022-11-02T18:30:29.962Z,18.30
2022-11-02T18:32:57.589Z,18.43
2022-11-02T18:35:28.221Z,18.34
2022-11-02T18:38:02.463Z,18.00
2022-11-02T18:40:35.072Z,17.89
2022-11-02T18:43:10.059Z,18.17
2022-11-02T18:45:37.074Z,17.56
2022-11-02T18:48:04.251Z,17.99
2022-11-02T18:50:31.206Z,18.08
2022-11-02T18:53:03.508Z,17.20
2022-11-02T18:55:33.316Z,17.25
2022-11-02T18:58:03.450Z,17.96
2022-11-02T19:00:30.573Z,16.73
2022-11-02T19:02:57.804Z,18.01
2022-11-02T19:05:43.513Z,18.04
2022-11-02T19:08:29.241Z,18.08
2022-11-02T19:10:59.082Z,18.01
2022-11-02T19:13:25.866Z,17.79
2022-11-02T19:15:52.613Z,18.13
2022-11-02T19:18:19.351Z,18.07
2022-11-02T19:20:47.046Z,17.96
2022-11-02T19:23:15.195Z,18.06
2022-11-02T19:25:41.862Z,18.11
2022-11-02T19:28:14.439Z,17.56
2022-11-02T19:30:41.177Z,17.73
2022-11-02T19:33:08.576Z,17.82
2022-11-02T19:35:35.858Z,17.66
2022-11-02T19:38:02.738Z,17.90
2022-11-02T19:40:29.419Z,18.02
2022-11-02T19:42:56.150Z,17.78
2022-11-02T19:45:22.852Z,17.89
2022-11-02T19:47:54.669Z,17.78
2022-11-02T19:50:22.077Z,17.66
2022-11-02T19:52:49.920Z,17.78
2022-11-02T19:55:17.921Z,17.60
2022-11-02T19:57:54.070Z,17.35
2022-11-02T20:00:22.267Z,17.56
2022-11-02T20:02:55.156Z,17.58
2022-11-02T20:05:21.922Z,17.52
2022-11-02T20:07:48.637Z,17.52
2022-11-02T20:10:18.825Z,17.53
2022-11-02T20:12:45.719Z,17.54
2022-11-02T20:15:12.253Z,17.21
2022-11-02T20:17:58.455Z,16.85
2022-11-02T20:20:26.916Z,17.49
2022-11-02T20:22:53.651Z,17.41
2022-11-02T20:25:21.171Z,17.32
2022-11-02T20:27:50.624Z,17.46
2022-11-02T20:30:22.409Z,17.11
2022-11-02T20:33:01.663Z,17.40
2022-11-02T20:35:28.806Z,17.31
2022-11-02T20:37:56.003Z,17.25
2022-11-02T20:40:25.807Z,16.78
2022-11-02T20:42:57.429Z,17.27
2022-11-02T20:45:24.700Z,17.19
2022-11-02T20:47:52.462Z,16.99
2022-11-02T20:50:23.182Z,17.20
2022-11-02T20:53:01.326Z,17.19
2022-11-02T20:55:30.956Z,17.19
2022-11-02T20:58:06.693Z,16.85
2022-11-02T21:00:34.668Z,17.13
2022-11-02T21:03:06.694Z,17.07
2022-11-02T21:05:44.928Z,17.12
2022-11-02T21:08:12.576Z,16.88
2022-11-02T21:10:40.776Z,17.16
2022-11-02T21:13:29.813Z,17.07
2022-11-02T21:15:57.309Z,17.05
2022-11-02T21:18:24.109Z,17.07
2022-11-02T21:20:55.001Z,17.21
2022-11-02T21:23:24.296Z,17.15
2022-11-02T21:26:01.560Z,17.27
2022-11-02T21:28:34.124Z,16.71
2022-11-02T21:31:12.769Z,17.15
2022-11-02T21:33:43.105Z,17.12
2022-11-02T21:36:10.717Z,16.69
2022-11-02T21:38:38.537Z,16.59
2022-11-02T21:41:06.864Z,17.21
2022-11-02T21:43:36.304Z,17.26
2022-11-02T21:46:05.835Z,16.99
2022-11-02T21:48:37.611Z,17.26
2022-11-02T21:51:05.764Z,17.20
2022-11-02T21:53:33.700Z,17.19
2022-11-02T21:56:05.668Z,16.43
2022-11-02T21:58:34.278Z,16.86
2022-11-02T22:01:31.149Z,16.91
2022-11-02T22:03:58.515Z,16.97
2022-11-02T22:06:31.077Z,16.76
2022-11-02T22:09:02.288Z,16.87
2022-11-02T22:11:29.405Z,16.77
2022-11-02T22:13:58.659Z,16.41
2022-11-02T22:16:28.341Z,16.75
2022-11-02T22:18:57.962Z,16.22
2022-11-02T22:21:27.088Z,16.64
2022-11-02T22:23:53.867Z,16.77
2022-11-02T22:26:25.130Z,15.39
2022-11-02T22:28:54.203Z,15.24
2022-11-02T22:31:28.222Z,15.50
2022-11-02T22:33:57.604Z,16.42
2022-11-02T22:36:32.107Z,16.76
2022-11-02T22:39:00.660Z,15.96
2022-11-02T22:41:30.810Z,16.76
2022-11-02T22:44:01.504Z,16.31
2022-11-02T22:46:34.869Z,16.62
2022-11-02T22:49:02.801Z,16.54
2022-11-02T22:51:39.137Z,16.76
2022-11-02T22:54:09.818Z,16.42
2022-11-02T22:56:36.818Z,16.43
2022-11-02T22:59:11.851Z,16.52
2022-11-02T23:01:39.551Z,15.49
2022-11-02T23:04:09.565Z,16.69
2022-11-02T23:06:38.861Z,16.40
2022-11-02T23:09:06.048Z,16.87
2022-11-02T23:11:37.480Z,16.58
2022-11-02T23:14:06.478Z,16.27
2022-11-02T23:16:52.447Z,16.26
2022-11-02T23:19:30.668Z,15.86
2022-11-02T23:22:27.300Z,16.06
2022-11-02T23:25:11.545Z,16.67
2022-11-02T23:28:01.682Z,16.67
2022-11-02T23:30:52.451Z,16.38
2022-11-02T23:33:20.102Z,16.06
2022-11-02T23:36:05.374Z,16.54
2022-11-02T23:39:01.466Z,16.53
2022-11-02T23:41:31.778Z,16.50
2022-11-02T23:44:14.906Z,16.22
2022-11-02T23:46:48.699Z,16.65
2022-11-02T23:49:22.316Z,16.58
2022-11-02T23:52:08.078Z,16.61
2022-11-02T23:54:59.608Z,16.48
2022-11-02T23:57:26.261Z,16.65
2022-11-02T23:59:56.536Z,16.63
